Airfield :
LOGIN :

Register | Disclaimer

   EN    FR    IT 

 










Legend :    VFR   Marginal VFR   IFR   Intensive IFR   Very Intensive IFR
Visi :
Ceiling :
>= 8 km
>= 3000ft
5 to 8 km
1000 to 3000 ft
1500m to 5 km
500 to 1000 ft
800 to 1500m
200 to 500 ft
< 800m
< 200 ft
Symbols :   Thunderstorms  Fog  Heavy snow  Heavy precipitations  Wind > 20 kt
SIGMETs :     Misc.  Thunderstorms  Icing  Turbulence  Mountain Waves  Volcanic Ashes






- Airport Elevation : 1758 ft
- IATA code : MZH


LTAP - Merzifon AB

CURRENT METAR :
  • 051050Z 07007KT 020V100 9999 -SHRA BKN040 BKN080 13/09 Q1017 NOSIG

EXPIRED METARs :
  • 051020Z 29003KT 260V350 9999 -SHRA BKN040 BKN080 13/09 Q1018 NOSIG RMK RWY23 02007KT 340V050
  • 050950Z 24005KT 210V280 9999 -SHRA BKN040 BKN080 13/07 Q1018 NOSIG RMK RWY23 24005KT
  • 050920Z VRB02KT 9999 BKN040 BKN080 13/07 Q1018 RESHRA NOSIG RMK RWY23 32004KT 280V350
  • 050850Z 26003KT 230V300 9999 -SHRA BKN040 BKN080 12/07 Q1018 NOSIG RMK RWY23 24004KT 200V280
  • 050820Z 17005KT 110V190 9999 -SHRA BKN040 BKN080 12/08 Q1018 NOSIG RMK RWY23 16004KT 040V200
  • 050750Z 01003KT 9999 -SHRA BKN040 BKN080 13/07 Q1018 NOSIG RMK RWY23 04005KT

TAF TAF LTAP
Valid from the 05 at 06:00 until the 06 at 06:00 UTC


050440Z 0506/0606 VRB02KT 9999 BKN032 BKN080
BECMG 0506/0509 -SHRA
BECMG 0511/0514 03025KT
BECMG 0516/0519 BKN020



MET'MAP, your aeronautical weather chart ! - Copyright ORBIFLY December 2007 - Disclaimer

ORBIFLY MET'MAP TEAM :

Programming & Development : Alexandra Zaïnal
Concept & original design : Baudouin d'Aumeries
Assistance for programming : Marc-Olivier Méhu
Technical & hardware support : Manuel Goepfert

Contact : metmap@orbifly.com




SOURCES & CREDITS :

   NOAA